sensor_id;sensor_type;location;lat;lon;timestamp;temperature;humidity
22674;DHT22;11504;43.334;21.918;2023-07-13T00:04:09;25.8;100.0
22674;DHT22;11504;43.334;21.918;2023-07-13T00:08:46;25.6;100.0
22674;DHT22;11504;43.334;21.918;2023-07-13T00:13:22;25.6;100.0
22674;DHT22;11504;43.334;21.918;2023-07-13T00:17:59;25.5;100.0
22674;DHT22;11504;43.334;21.918;2023-07-13T00:22:36;25.5;100.0
22674;DHT22;11504;43.334;21.918;2023-07-13T00:27:14;25.3;100.0
22674;DHT22;11504;43.334;21.918;2023-07-13T00:31:51;25.3;100.0
22674;DHT22;11504;43.334;21.918;2023-07-13T00:36:27;25.2;100.0
22674;DHT22;11504;43.334;21.918;2023-07-13T00:41:04;25.2;100.0
22674;DHT22;11504;43.334;21.918;2023-07-13T00:46:46;25.2;100.0
22674;DHT22;11504;43.334;21.918;2023-07-13T00:51:36;25.2;100.0
22674;DHT22;11504;43.334;21.918;2023-07-13T00:56:19;25.2;100.0
22674;DHT22;11504;43.334;21.918;2023-07-13T01:00:56;25.2;100.0
22674;DHT22;11504;43.334;21.918;2023-07-13T01:05:35;25.3;100.0
22674;DHT22;11504;43.334;21.918;2023-07-13T01:10:15;25.3;100.0
22674;DHT22;11504;43.334;21.918;2023-07-13T01:15:00;25.3;100.0
22674;DHT22;11504;43.334;21.918;2023-07-13T01:20:12;25.3;100.0
22674;DHT22;11504;43.334;21.918;2023-07-13T01:24:49;25.3;100.0
22674;DHT22;11504;43.334;21.918;2023-07-13T01:29:27;25.3;100.0
22674;DHT22;11504;43.334;21.918;2023-07-13T01:34:04;25.3;100.0
22674;DHT22;11504;43.334;21.918;2023-07-13T01:38:41;25.2;100.0
22674;DHT22;11504;43.334;21.918;2023-07-13T01:43:19;25.2;100.0
22674;DHT22;11504;43.334;21.918;2023-07-13T01:47:57;25.2;100.0
22674;DHT22;11504;43.334;21.918;2023-07-13T01:52:34;25.2;100.0
22674;DHT22;11504;43.334;21.918;2023-07-13T01:57:10;25.1;100.0
22674;DHT22;11504;43.334;21.918;2023-07-13T02:01:47;25.1;100.0
22674;DHT22;11504;43.334;21.918;2023-07-13T02:06:24;25.0;100.0
22674;DHT22;11504;43.334;21.918;2023-07-13T02:11:03;25.0;100.0
22674;DHT22;11504;43.334;21.918;2023-07-13T02:15:40;24.9;100.0
22674;DHT22;11504;43.334;21.918;2023-07-13T02:20:16;24.9;100.0
22674;DHT22;11504;43.334;21.918;2023-07-13T02:24:53;24.9;100.0
22674;DHT22;11504;43.334;21.918;2023-07-13T02:29:30;24.8;100.0
22674;DHT22;11504;43.334;21.918;2023-07-13T02:34:07;24.8;100.0
22674;DHT22;11504;43.334;21.918;2023-07-13T02:38:43;24.6;100.0
22674;DHT22;11504;43.334;21.918;2023-07-13T02:43:20;24.6;100.0
22674;DHT22;11504;43.334;21.918;2023-07-13T02:47:58;24.5;100.0
22674;DHT22;11504;43.334;21.918;2023-07-13T02:52:35;24.5;100.0
22674;DHT22;11504;43.334;21.918;2023-07-13T02:57:11;24.4;100.0
22674;DHT22;11504;43.334;21.918;2023-07-13T03:01:48;24.4;100.0
22674;DHT22;11504;43.334;21.918;2023-07-13T03:06:25;24.4;100.0
22674;DHT22;11504;43.334;21.918;2023-07-13T03:11:08;24.4;100.0
22674;DHT22;11504;43.334;21.918;2023-07-13T03:15:49;24.3;100.0
22674;DHT22;11504;43.334;21.918;2023-07-13T03:20:25;24.3;100.0
22674;DHT22;11504;43.334;21.918;2023-07-13T03:25:01;24.3;100.0
22674;DHT22;11504;43.334;21.918;2023-07-13T03:29:37;24.2;100.0
22674;DHT22;11504;43.334;21.918;2023-07-13T03:34:13;24.2;100.0
22674;DHT22;11504;43.334;21.918;2023-07-13T03:38:55;24.2;100.0
22674;DHT22;11504;43.334;21.918;2023-07-13T03:43:36;24.2;100.0
22674;DHT22;11504;43.334;21.918;2023-07-13T03:48:14;24.1;100.0
22674;DHT22;11504;43.334;21.918;2023-07-13T03:52:51;24.1;100.0
22674;DHT22;11504;43.334;21.918;2023-07-13T03:57:28;24.3;100.0
22674;DHT22;11504;43.334;21.918;2023-07-13T04:02:06;24.3;100.0
22674;DHT22;11504;43.334;21.918;2023-07-13T04:06:44;24.5;100.0
22674;DHT22;11504;43.334;21.918;2023-07-13T04:11:29;24.5;100.0
22674;DHT22;11504;43.334;21.918;2023-07-13T04:16:08;25.2;100.0
22674;DHT22;11504;43.334;21.918;2023-07-13T04:20:47;25.2;100.0
22674;DHT22;11504;43.334;21.918;2023-07-13T04:25:27;25.8;100.0
22674;DHT22;11504;43.334;21.918;2023-07-13T04:30:08;25.8;100.0
22674;DHT22;11504;43.334;21.918;2023-07-13T04:34:46;25.8;100.0
22674;DHT22;11504;43.334;21.918;2023-07-13T04:39:23;27.8;100.0
22674;DHT22;11504;43.334;21.918;2023-07-13T04:44:00;27.8;100.0
22674;DHT22;11504;43.334;21.918;2023-07-13T04:48:37;29.9;100.0
22674;DHT22;11504;43.334;21.918;2023-07-13T04:53:15;29.9;100.0
22674;DHT22;11504;43.334;21.918;2023-07-13T04:57:51;32.0;100.0
22674;DHT22;11504;43.334;21.918;2023-07-13T05:02:27;32.0;100.0
22674;DHT22;11504;43.334;21.918;2023-07-13T05:07:06;34.2;100.0
22674;DHT22;11504;43.334;21.918;2023-07-13T05:11:43;34.2;100.0
22674;DHT22;11504;43.334;21.918;2023-07-13T05:16:20;36.2;100.0
22674;DHT22;11504;43.334;21.918;2023-07-13T05:21:03;36.2;100.0
22674;DHT22;11504;43.334;21.918;2023-07-13T05:25:42;38.1;100.0
22674;DHT22;11504;43.334;21.918;2023-07-13T05:30:19;38.1;100.0
22674;DHT22;11504;43.334;21.918;2023-07-13T05:34:55;38.1;100.0
22674;DHT22;11504;43.334;21.918;2023-07-13T05:39:32;39.3;100.0
22674;DHT22;11504;43.334;21.918;2023-07-13T05:44:08;39.3;100.0
22674;DHT22;11504;43.334;21.918;2023-07-13T05:48:45;40.5;100.0
22674;DHT22;11504;43.334;21.918;2023-07-13T05:53:22;40.5;100.0
22674;DHT22;11504;43.334;21.918;2023-07-13T05:58:01;40.8;100.0
22674;DHT22;11504;43.334;21.918;2023-07-13T06:02:38;40.8;100.0
22674;DHT22;11504;43.334;21.918;2023-07-13T06:07:15;41.0;100.0
22674;DHT22;11504;43.334;21.918;2023-07-13T06:11:51;41.0;100.0
22674;DHT22;11504;43.334;21.918;2023-07-13T06:16:27;41.0;100.0
22674;DHT22;11504;43.334;21.918;2023-07-13T06:21:11;41.0;100.0
22674;DHT22;11504;43.334;21.918;2023-07-13T06:25:58;41.1;100.0
22674;DHT22;11504;43.334;21.918;2023-07-13T06:30:38;41.1;100.0
22674;DHT22;11504;43.334;21.918;2023-07-13T06:35:16;40.7;100.0
22674;DHT22;11504;43.334;21.918;2023-07-13T06:39:53;40.7;100.0
22674;DHT22;11504;43.334;21.918;2023-07-13T06:44:29;40.7;100.0
22674;DHT22;11504;43.334;21.918;2023-07-13T06:49:09;40.2;100.0
22674;DHT22;11504;43.334;21.918;2023-07-13T06:53:46;40.2;100.0
22674;DHT22;11504;43.334;21.918;2023-07-13T06:58:23;39.8;100.0
22674;DHT22;11504;43.334;21.918;2023-07-13T07:03:01;39.8;100.0
22674;DHT22;11504;43.334;21.918;2023-07-13T07:07:38;39.3;100.0
22674;DHT22;11504;43.334;21.918;2023-07-13T07:12:15;39.3;100.0
22674;DHT22;11504;43.334;21.918;2023-07-13T07:16:52;39.0;100.0
22674;DHT22;11504;43.334;21.918;2023-07-13T07:21:28;39.0;100.0
22674;DHT22;11504;43.334;21.918;2023-07-13T07:26:05;38.8;100.0
22674;DHT22;11504;43.334;21.918;2023-07-13T07:30:42;38.8;100.0
22674;DHT22;11504;43.334;21.918;2023-07-13T07:35:19;38.8;100.0
22674;DHT22;11504;43.334;21.918;2023-07-13T07:39:55;38.8;100.0
22674;DHT22;11504;43.334;21.918;2023-07-13T07:44:32;38.8;100.0
22674;DHT22;11504;43.334;21.918;2023-07-13T07:49:10;38.8;100.0
22674;DHT22;11504;43.334;21.918;2023-07-13T07:53:48;38.8;100.0
22674;DHT22;11504;43.334;21.918;2023-07-13T07:58:24;39.0;100.0
22674;DHT22;11504;43.334;21.918;2023-07-13T08:03:02;39.0;100.0
22674;DHT22;11504;43.334;21.918;2023-07-13T08:07:40;39.1;100.0
22674;DHT22;11504;43.334;21.918;2023-07-13T08:12:16;39.1;100.0
22674;DHT22;11504;43.334;21.918;2023-07-13T08:16:53;39.3;100.0
22674;DHT22;11504;43.334;21.918;2023-07-13T08:21:29;39.3;100.0
22674;DHT22;11504;43.334;21.918;2023-07-13T08:26:07;39.5;100.0
22674;DHT22;11504;43.334;21.918;2023-07-13T08:30:45;39.5;100.0
22674;DHT22;11504;43.334;21.918;2023-07-13T08:35:22;39.4;100.0
22674;DHT22;11504;43.334;21.918;2023-07-13T08:39:58;39.4;100.0
22674;DHT22;11504;43.334;21.918;2023-07-13T08:45:00;39.4;100.0
22674;DHT22;11504;43.334;21.918;2023-07-13T08:49:48;39.2;100.0
22674;DHT22;11504;43.334;21.918;2023-07-13T08:54:36;39.2;100.0
22674;DHT22;11504;43.334;21.918;2023-07-13T08:59:28;39.1;100.0
22674;DHT22;11504;43.334;21.918;2023-07-13T09:04:22;39.1;100.0
22674;DHT22;11504;43.334;21.918;2023-07-13T09:09:55;39.0;100.0
22674;DHT22;11504;43.334;21.918;2023-07-13T09:15:25;39.0;100.0
22674;DHT22;11504;43.334;21.918;2023-07-13T09:20:32;39.0;100.0
22674;DHT22;11504;43.334;21.918;2023-07-13T09:25:36;38.9;100.0
22674;DHT22;11504;43.334;21.918;2023-07-13T09:30:46;38.9;100.0
22674;DHT22;11504;43.334;21.918;2023-07-13T09:35:42;38.8;100.0
22674;DHT22;11504;43.334;21.918;2023-07-13T09:40:40;38.8;100.0
22674;DHT22;11504;43.334;21.918;2023-07-13T09:45:52;38.6;100.0
22674;DHT22;11504;43.334;21.918;2023-07-13T09:50:29;38.6;100.0
22674;DHT22;11504;43.334;21.918;2023-07-13T09:55:30;38.5;100.0
22674;DHT22;11504;43.334;21.918;2023-07-13T10:00:27;38.5;100.0
22674;DHT22;11504;43.334;21.918;2023-07-13T10:05:14;38.5;100.0
22674;DHT22;11504;43.334;21.918;2023-07-13T10:09:53;38.4;100.0
22674;DHT22;11504;43.334;21.918;2023-07-13T10:14:30;38.4;100.0
22674;DHT22;11504;43.334;21.918;2023-07-13T10:19:22;38.0;100.0
22674;DHT22;11504;43.334;21.918;2023-07-13T10:24:21;38.0;100.0
22674;DHT22;11504;43.334;21.918;2023-07-13T10:29:15;37.7;100.0
22674;DHT22;11504;43.334;21.918;2023-07-13T10:33:56;37.7;100.0
22674;DHT22;11504;43.334;21.918;2023-07-13T10:38:33;37.5;100.0
22674;DHT22;11504;43.334;21.918;2023-07-13T10:43:29;37.5;100.0
22674;DHT22;11504;43.334;21.918;2023-07-13T10:48:21;37.3;100.0
22674;DHT22;11504;43.334;21.918;2023-07-13T10:53:21;37.3;100.0
22674;DHT22;11504;43.334;21.918;2023-07-13T10:58:21;37.2;100.0
22674;DHT22;11504;43.334;21.918;2023-07-13T11:03:20;37.2;100.0
22674;DHT22;11504;43.334;21.918;2023-07-13T11:08:20;37.1;100.0
22674;DHT22;11504;43.334;21.918;2023-07-13T11:13:58;37.1;100.0
22674;DHT22;11504;43.334;21.918;2023-07-13T11:18:36;37.0;100.0
22674;DHT22;11504;43.334;21.918;2023-07-13T11:23:31;37.0;100.0
22674;DHT22;11504;43.334;21.918;2023-07-13T11:28:25;37.0;100.0
22674;DHT22;11504;43.334;21.918;2023-07-13T11:33:19;37.0;100.0
22674;DHT22;11504;43.334;21.918;2023-07-13T11:37:59;36.9;100.0
22674;DHT22;11504;43.334;21.918;2023-07-13T11:42:38;36.9;100.0
22674;DHT22;11504;43.334;21.918;2023-07-13T11:47:22;36.8;100.0
22674;DHT22;11504;43.334;21.918;2023-07-13T11:52:01;36.8;100.0
22674;DHT22;11504;43.334;21.918;2023-07-13T11:56:42;36.7;100.0
22674;DHT22;11504;43.334;21.918;2023-07-13T12:01:27;36.7;100.0
22674;DHT22;11504;43.334;21.918;2023-07-13T12:06:29;36.6;100.0
22674;DHT22;11504;43.334;21.918;2023-07-13T12:11:18;36.6;100.0
22674;DHT22;11504;43.334;21.918;2023-07-13T12:15:57;36.7;100.0
22674;DHT22;11504;43.334;21.918;2023-07-13T12:20:39;36.7;100.0
22674;DHT22;11504;43.334;21.918;2023-07-13T12:25:18;36.7;100.0
22674;DHT22;11504;43.334;21.918;2023-07-13T12:30:28;36.7;100.0
22674;DHT22;11504;43.334;21.918;2023-07-13T12:35:17;36.7;100.0
22674;DHT22;11504;43.334;21.918;2023-07-13T12:39:54;36.7;100.0
22674;DHT22;11504;43.334;21.918;2023-07-13T12:44:32;36.7;100.0
22674;DHT22;11504;43.334;21.918;2023-07-13T12:49:14;36.6;100.0
22674;DHT22;11504;43.334;21.918;2023-07-13T12:54:13;36.6;100.0
22674;DHT22;11504;43.334;21.918;2023-07-13T12:59:03;36.6;100.0
22674;DHT22;11504;43.334;21.918;2023-07-13T13:03:50;36.6;100.0
22674;DHT22;11504;43.334;21.918;2023-07-13T13:08:34;36.6;100.0
22674;DHT22;11504;43.334;21.918;2023-07-13T13:13:12;36.6;100.0
22674;DHT22;11504;43.334;21.918;2023-07-13T13:17:48;36.6;100.0
22674;DHT22;11504;43.334;21.918;2023-07-13T13:22:25;36.6;100.0
22674;DHT22;11504;43.334;21.918;2023-07-13T13:27:03;36.5;100.0
22674;DHT22;11504;43.334;21.918;2023-07-13T13:31:42;36.5;100.0
22674;DHT22;11504;43.334;21.918;2023-07-13T13:36:23;36.4;100.0
22674;DHT22;11504;43.334;21.918;2023-07-13T13:40:59;36.4;100.0
22674;DHT22;11504;43.334;21.918;2023-07-13T13:45:36;36.4;100.0
22674;DHT22;11504;43.334;21.918;2023-07-13T13:50:20;36.4;100.0
22674;DHT22;11504;43.334;21.918;2023-07-13T13:54:58;36.4;100.0
22674;DHT22;11504;43.334;21.918;2023-07-13T13:59:34;36.4;100.0
22674;DHT22;11504;43.334;21.918;2023-07-13T14:04:20;36.4;100.0
22674;DHT22;11504;43.334;21.918;2023-07-13T14:08:59;36.4;100.0
22674;DHT22;11504;43.334;21.918;2023-07-13T14:13:47;36.4;100.0
22674;DHT22;11504;43.334;21.918;2023-07-13T14:18:27;36.4;100.0
22674;DHT22;11504;43.334;21.918;2023-07-13T14:23:04;36.4;100.0
22674;DHT22;11504;43.334;21.918;2023-07-13T14:27:47;36.4;100.0
22674;DHT22;11504;43.334;21.918;2023-07-13T14:32:54;36.4;100.0
22674;DHT22;11504;43.334;21.918;2023-07-13T14:37:31;36.4;100.0
22674;DHT22;11504;43.334;21.918;2023-07-13T14:42:11;36.4;100.0
22674;DHT22;11504;43.334;21.918;2023-07-13T14:46:49;36.4;100.0
22674;DHT22;11504;43.334;21.918;2023-07-13T14:51:32;36.4;100.0
22674;DHT22;11504;43.334;21.918;2023-07-13T14:56:12;36.3;100.0
22674;DHT22;11504;43.334;21.918;2023-07-13T15:00:49;36.3;100.0
22674;DHT22;11504;43.334;21.918;2023-07-13T15:05:31;36.3;100.0
22674;DHT22;11504;43.334;21.918;2023-07-13T15:10:19;36.2;100.0
22674;DHT22;11504;43.334;21.918;2023-07-13T15:15:07;36.2;100.0
22674;DHT22;11504;43.334;21.918;2023-07-13T15:19:44;36.2;100.0
22674;DHT22;11504;43.334;21.918;2023-07-13T15:24:21;36.2;100.0
22674;DHT22;11504;43.334;21.918;2023-07-13T15:28:58;36.1;100.0
22674;DHT22;11504;43.334;21.918;2023-07-13T15:33:34;36.1;100.0
22674;DHT22;11504;43.334;21.918;2023-07-13T15:38:21;36.0;100.0
22674;DHT22;11504;43.334;21.918;2023-07-13T15:43:00;36.0;100.0
22674;DHT22;11504;43.334;21.918;2023-07-13T15:47:36;35.9;100.0
22674;DHT22;11504;43.334;21.918;2023-07-13T15:52:22;35.9;100.0
22674;DHT22;11504;43.334;21.918;2023-07-13T15:57:02;35.8;100.0
22674;DHT22;11504;43.334;21.918;2023-07-13T16:01:45;35.8;100.0
22674;DHT22;11504;43.334;21.918;2023-07-13T16:06:31;35.7;100.0
22674;DHT22;11504;43.334;21.918;2023-07-13T16:11:22;35.7;100.0
22674;DHT22;11504;43.334;21.918;2023-07-13T16:16:11;35.7;100.0
22674;DHT22;11504;43.334;21.918;2023-07-13T16:20:50;35.7;100.0
22674;DHT22;11504;43.334;21.918;2023-07-13T16:25:26;35.7;100.0
22674;DHT22;11504;43.334;21.918;2023-07-13T16:30:17;35.6;100.0
22674;DHT22;11504;43.334;21.918;2023-07-13T16:34:59;35.6;100.0
22674;DHT22;11504;43.334;21.918;2023-07-13T16:39:35;35.4;100.0
22674;DHT22;11504;43.334;21.918;2023-07-13T16:44:19;35.4;100.0
22674;DHT22;11504;43.334;21.918;2023-07-13T16:48:56;35.3;100.0
22674;DHT22;11504;43.334;21.918;2023-07-13T16:53:34;35.3;100.0
22674;DHT22;11504;43.334;21.918;2023-07-13T16:58:10;35.2;100.0
22674;DHT22;11504;43.334;21.918;2023-07-13T17:02:48;35.2;100.0
22674;DHT22;11504;43.334;21.918;2023-07-13T17:07:26;35.0;100.0
22674;DHT22;11504;43.334;21.918;2023-07-13T17:12:06;35.0;100.0
22674;DHT22;11504;43.334;21.918;2023-07-13T17:16:49;34.8;100.0
22674;DHT22;11504;43.334;21.918;2023-07-13T17:21:32;34.8;100.0
22674;DHT22;11504;43.334;21.918;2023-07-13T17:26:09;34.7;100.0
22674;DHT22;11504;43.334;21.918;2023-07-13T17:30:53;34.7;100.0
22674;DHT22;11504;43.334;21.918;2023-07-13T17:35:37;34.7;100.0
22674;DHT22;11504;43.334;21.918;2023-07-13T17:40:16;34.5;100.0
22674;DHT22;11504;43.334;21.918;2023-07-13T17:44:53;34.5;100.0
22674;DHT22;11504;43.334;21.918;2023-07-13T17:49:31;34.3;100.0
22674;DHT22;11504;43.334;21.918;2023-07-13T17:54:14;34.3;100.0
22674;DHT22;11504;43.334;21.918;2023-07-13T17:58:53;34.0;100.0
22674;DHT22;11504;43.334;21.918;2023-07-13T18:03:30;34.0;100.0
22674;DHT22;11504;43.334;21.918;2023-07-13T18:08:26;33.8;100.0
22674;DHT22;11504;43.334;21.918;2023-07-13T18:13:07;33.8;100.0
22674;DHT22;11504;43.334;21.918;2023-07-13T18:17:50;33.3;100.0
22674;DHT22;11504;43.334;21.918;2023-07-13T18:22:27;33.3;100.0
22674;DHT22;11504;43.334;21.918;2023-07-13T18:27:05;32.8;100.0
22674;DHT22;11504;43.334;21.918;2023-07-13T18:31:43;32.8;100.0
22674;DHT22;11504;43.334;21.918;2023-07-13T18:36:23;32.5;100.0
22674;DHT22;11504;43.334;21.918;2023-07-13T18:40:59;32.5;100.0
22674;DHT22;11504;43.334;21.918;2023-07-13T18:45:36;32.5;100.0
22674;DHT22;11504;43.334;21.918;2023-07-13T18:50:20;32.2;100.0
22674;DHT22;11504;43.334;21.918;2023-07-13T18:55:17;32.2;100.0
22674;DHT22;11504;43.334;21.918;2023-07-13T18:59:57;32.0;100.0
22674;DHT22;11504;43.334;21.918;2023-07-13T19:04:34;32.0;100.0
22674;DHT22;11504;43.334;21.918;2023-07-13T19:09:12;31.8;100.0
22674;DHT22;11504;43.334;21.918;2023-07-13T19:13:48;31.8;100.0
22674;DHT22;11504;43.334;21.918;2023-07-13T19:18:25;31.6;100.0
22674;DHT22;11504;43.334;21.918;2023-07-13T19:23:23;31.6;100.0
22674;DHT22;11504;43.334;21.918;2023-07-13T19:28:35;31.5;100.0
22674;DHT22;11504;43.334;21.918;2023-07-13T19:33:17;31.5;100.0
22674;DHT22;11504;43.334;21.918;2023-07-13T19:37:53;31.4;100.0
22674;DHT22;11504;43.334;21.918;2023-07-13T19:42:31;31.4;100.0
22674;DHT22;11504;43.334;21.918;2023-07-13T19:47:13;31.4;100.0
22674;DHT22;11504;43.334;21.918;2023-07-13T19:51:53;31.4;100.0
22674;DHT22;11504;43.334;21.918;2023-07-13T19:56:30;31.4;100.0
22674;DHT22;11504;43.334;21.918;2023-07-13T20:01:07;31.4;100.0
22674;DHT22;11504;43.334;21.918;2023-07-13T20:05:44;31.4;100.0
22674;DHT22;11504;43.334;21.918;2023-07-13T20:10:27;31.3;100.0
22674;DHT22;11504;43.334;21.918;2023-07-13T20:15:17;31.3;100.0
22674;DHT22;11504;43.334;21.918;2023-07-13T20:20:28;31.2;100.0
22674;DHT22;11504;43.334;21.918;2023-07-13T20:25:22;31.2;100.0
22674;DHT22;11504;43.334;21.918;2023-07-13T20:30:11;31.2;100.0
22674;DHT22;11504;43.334;21.918;2023-07-13T20:34:49;31.2;100.0
22674;DHT22;11504;43.334;21.918;2023-07-13T20:39:25;31.0;100.0
22674;DHT22;11504;43.334;21.918;2023-07-13T20:44:03;31.0;100.0
22674;DHT22;11504;43.334;21.918;2023-07-13T20:48:44;30.7;100.0
22674;DHT22;11504;43.334;21.918;2023-07-13T20:53:21;30.7;100.0
22674;DHT22;11504;43.334;21.918;2023-07-13T20:57:57;30.6;100.0
22674;DHT22;11504;43.334;21.918;2023-07-13T21:02:34;30.6;100.0
22674;DHT22;11504;43.334;21.918;2023-07-13T21:07:20;30.4;100.0
22674;DHT22;11504;43.334;21.918;2023-07-13T21:11:59;30.4;100.0
22674;DHT22;11504;43.334;21.918;2023-07-13T21:16:36;30.3;100.0
22674;DHT22;11504;43.334;21.918;2023-07-13T21:21:22;30.3;100.0
22674;DHT22;11504;43.334;21.918;2023-07-13T21:26:07;30.2;100.0
22674;DHT22;11504;43.334;21.918;2023-07-13T21:30:46;30.2;100.0
22674;DHT22;11504;43.334;21.918;2023-07-13T21:35:34;30.2;100.0
22674;DHT22;11504;43.334;21.918;2023-07-13T21:40:21;30.0;100.0
22674;DHT22;11504;43.334;21.918;2023-07-13T21:45:22;30.0;100.0
22674;DHT22;11504;43.334;21.918;2023-07-13T21:50:05;29.7;100.0
22674;DHT22;11504;43.334;21.918;2023-07-13T21:54:44;29.7;100.0
22674;DHT22;11504;43.334;21.918;2023-07-13T21:59:27;29.8;100.0
22674;DHT22;11504;43.334;21.918;2023-07-13T22:04:14;29.8;100.0
22674;DHT22;11504;43.334;21.918;2023-07-13T22:08:59;29.8;100.0
22674;DHT22;11504;43.334;21.918;2023-07-13T22:13:36;29.8;100.0
22674;DHT22;11504;43.334;21.918;2023-07-13T22:18:20;29.6;100.0
22674;DHT22;11504;43.334;21.918;2023-07-13T22:22:58;29.6;100.0
22674;DHT22;11504;43.334;21.918;2023-07-13T22:27:35;29.5;100.0
22674;DHT22;11504;43.334;21.918;2023-07-13T22:32:12;29.5;100.0
22674;DHT22;11504;43.334;21.918;2023-07-13T22:36:50;29.5;100.0
22674;DHT22;11504;43.334;21.918;2023-07-13T22:41:27;29.5;100.0
22674;DHT22;11504;43.334;21.918;2023-07-13T22:46:05;29.5;100.0
22674;DHT22;11504;43.334;21.918;2023-07-13T22:50:58;29.5;100.0
22674;DHT22;11504;43.334;21.918;2023-07-13T22:55:35;29.5;100.0
22674;DHT22;11504;43.334;21.918;2023-07-13T23:00:18;29.4;100.0
22674;DHT22;11504;43.334;21.918;2023-07-13T23:04:56;29.4;100.0
22674;DHT22;11504;43.334;21.918;2023-07-13T23:09:33;29.2;100.0
22674;DHT22;11504;43.334;21.918;2023-07-13T23:14:10;29.2;100.0
22674;DHT22;11504;43.334;21.918;2023-07-13T23:18:49;29.0;100.0
22674;DHT22;11504;43.334;21.918;2023-07-13T23:23:26;29.0;100.0
22674;DHT22;11504;43.334;21.918;2023-07-13T23:28:03;28.7;100.0
22674;DHT22;11504;43.334;21.918;2023-07-13T23:32:40;28.7;100.0
22674;DHT22;11504;43.334;21.918;2023-07-13T23:37:17;28.6;100.0
22674;DHT22;11504;43.334;21.918;2023-07-13T23:41:54;28.6;100.0
22674;DHT22;11504;43.334;21.918;2023-07-13T23:46:45;28.4;100.0
22674;DHT22;11504;43.334;21.918;2023-07-13T23:51:30;28.4;100.0
22674;DHT22;11504;43.334;21.918;2023-07-13T23:56:21;28.2;100.0
